Time;durP1;ratioP1;P1;durP2;ratioP2;P2;SDS_P1;SDS_P2;PMS_P1;PMS_P2;Temp;Humidity;BMP_temperature;BMP_pressure;BME280_temperature;BME280_humidity;BME280_pressure;Samples;Min_cycle;Max_cycle;Signal;HPM_P1;HPM_P2
2021/04/09 00:00:46;;;;;;;8.85;3.20;;;4.90;99.90;;;5.68;60.90;101519.59;5006524;28;20273;-79
2021/04/09 00:03:13;;;;;;;13.18;3.25;;;4.80;99.90;;;5.70;61.19;101522.16;5000753;28;20294;-78
2021/04/09 00:05:40;;;;;;;9.43;3.58;;;4.80;99.90;;;5.68;61.04;101513.53;5010456;28;20226;-79
2021/04/09 00:08:07;;;;;;;7.70;2.97;;;4.80;99.90;;;5.64;60.93;101517.03;5037976;28;20205;-78
2021/04/09 00:10:34;;;;;;;9.57;3.30;;;4.80;99.90;;;5.58;60.94;101519.63;5008993;28;20209;-78
2021/04/09 00:13:02;;;;;;;9.70;2.80;;;4.70;99.90;;;5.58;60.95;101522.22;5030751;28;20197;-78
2021/04/09 00:15:28;;;;;;;11.68;3.45;;;4.70;99.90;;;5.60;60.76;101517.88;5021537;28;20229;-78
2021/04/09 00:17:55;;;;;;;9.52;3.38;;;4.70;99.90;;;5.56;60.82;101504.06;5019049;28;20201;-78
2021/04/09 00:20:24;;;;;;;9.93;3.60;;;4.70;99.90;;;5.53;61.12;101508.41;5009575;28;20213;-78
2021/04/09 00:22:51;;;;;;;10.43;3.17;;;4.70;99.90;;;5.53;60.91;101513.59;5007100;28;20225;-79
2021/04/09 00:25:23;;;;;;;9.93;3.22;;;4.70;99.90;;;5.51;61.04;101511.00;5025781;28;20244;-79
2021/04/09 00:27:52;;;;;;;10.47;3.33;;;4.70;99.90;;;5.53;61.22;101508.41;5009846;28;20182;-79
2021/04/09 00:30:26;;;;;;;9.50;3.33;;;4.70;99.90;;;5.57;61.39;101499.75;5014154;28;20271;-77
2021/04/09 00:32:53;;;;;;;8.10;2.97;;;4.70;99.90;;;5.56;60.74;101496.28;5029073;28;20709;-79
2021/04/09 00:35:20;;;;;;;11.77;3.58;;;4.70;99.90;;;5.51;60.98;101498.03;5012458;28;20264;-79
2021/04/09 00:37:46;;;;;;;10.45;3.40;;;4.60;99.90;;;5.48;61.58;101495.44;5035970;28;20335;-79
2021/04/09 00:40:14;;;;;;;13.35;3.40;;;4.60;99.90;;;5.51;61.63;101486.81;5034644;28;20268;-76
2021/04/09 00:42:42;;;;;;;9.77;3.30;;;4.60;99.90;;;5.50;61.36;101477.28;5014139;28;20198;-78
2021/04/09 00:45:10;;;;;;;11.32;4.03;;;4.60;99.90;;;5.42;61.62;101479.91;5000699;28;20193;-79
2021/04/09 00:47:38;;;;;;;12.00;3.78;;;4.50;99.90;;;5.37;62.02;101467.81;5029259;28;20200;-79
2021/04/09 00:50:07;;;;;;;12.90;4.00;;;4.50;99.90;;;5.39;62.14;101468.69;5006163;28;20245;-78
2021/04/09 00:52:36;;;;;;;11.48;3.63;;;4.50;99.90;;;5.39;62.19;101453.13;5005209;28;20186;-78
2021/04/09 00:55:06;;;;;;;12.77;3.90;;;4.50;99.90;;;5.41;62.27;101457.41;5014925;28;20285;-78
2021/04/09 00:57:33;;;;;;;14.43;4.53;;;4.50;99.90;;;5.39;62.22;101447.94;5010354;28;20226;-76
2021/04/09 01:00:02;;;;;;;15.63;4.00;;;4.50;99.90;;;5.35;62.26;101451.41;5005042;28;20223;-77
2021/04/09 01:02:28;;;;;;;13.35;4.30;;;4.50;99.90;;;5.35;62.34;101446.22;5023657;28;20199;-77
2021/04/09 01:04:56;;;;;;;13.77;4.07;;;4.50;99.90;;;5.35;62.40;101441.00;5032115;28;20189;-77
2021/04/09 01:07:24;;;;;;;10.50;3.75;;;4.40;99.90;;;5.39;62.14;101442.75;5018704;28;20186;-78
2021/04/09 01:09:50;;;;;;;15.30;4.13;;;4.40;99.90;;;5.37;62.14;101436.69;5001708;28;20267;-79
2021/04/09 01:12:19;;;;;;;14.85;3.75;;;4.40;99.90;;;5.31;62.13;101428.94;5028418;28;20282;-78
2021/04/09 01:14:46;;;;;;;11.80;3.42;;;4.40;99.90;;;5.32;62.25;101435.84;5006077;28;20241;-78
2021/04/09 01:17:20;;;;;;;10.18;3.67;;;4.40;99.90;;;5.29;62.49;101426.38;5033647;28;20190;-78
2021/04/09 01:20:29;;;;;;;9.37;3.77;;;4.40;99.90;;;5.29;62.39;101418.59;5014035;28;20234;-78
2021/04/09 01:23:28;;;;;;;12.00;3.63;;;4.40;99.90;;;5.26;62.41;101409.94;5020202;28;20194;-78
2021/04/09 01:26:46;;;;;;;12.17;3.00;;;4.30;99.90;;;5.21;62.34;101409.13;5016177;28;20186;-78
2021/04/09 01:29:52;;;;;;;9.30;3.20;;;4.30;99.90;;;5.13;62.23;101399.63;5025500;28;20275;-78
2021/04/09 01:32:20;;;;;;;10.70;3.17;;;4.20;99.90;;;5.09;62.27;101395.31;5027710;28;20225;-78
2021/04/09 01:34:52;;;;;;;12.47;3.23;;;4.20;99.90;;;5.12;62.36;101389.25;5030794;28;20198;-78
2021/04/09 01:37:24;;;;;;;9.27;3.33;;;4.20;99.90;;;5.14;62.63;101390.13;5030255;28;20213;-79
2021/04/09 01:39:57;;;;;;;9.83;3.20;;;4.20;99.90;;;5.15;62.23;101397.03;5014811;28;20237;-78
2021/04/09 01:42:26;;;;;;;9.57;3.30;;;4.20;99.90;;;5.13;62.15;101378.88;5010147;28;20281;-79
2021/04/09 01:44:55;;;;;;;11.27;3.20;;;4.20;99.90;;;5.13;62.53;101378.88;5033949;28;20198;-79
2021/04/09 01:47:28;;;;;;;10.32;3.55;;;4.20;99.90;;;5.08;62.43;101374.56;5002659;28;20191;-79
2021/04/09 01:49:58;;;;;;;13.13;3.27;;;4.20;99.90;;;5.04;62.39;101378.91;5009366;28;20585;-78
2021/04/09 01:52:27;;;;;;;8.80;3.33;;;4.10;99.90;;;4.98;62.56;101371.16;5008428;28;20175;-78
2021/04/09 01:54:57;;;;;;;9.80;3.27;;;4.10;99.90;;;4.92;62.63;101362.56;5015184;28;20202;-79
2021/04/09 01:57:28;;;;;;;8.98;3.40;;;4.00;99.90;;;4.90;62.69;101354.78;5033182;28;20276;-78
2021/04/09 01:59:59;;;;;;;9.93;3.25;;;4.00;99.90;;;4.88;62.84;101351.34;5025407;28;20779;-78
2021/04/09 02:02:28;;;;;;;10.13;3.22;;;4.00;99.90;;;4.80;62.60;101347.91;5044404;28;20232;-78
2021/04/09 02:05:00;;;;;;;11.80;3.00;;;3.90;99.90;;;4.79;62.68;101346.19;5013460;28;20198;-78
2021/04/09 02:07:28;;;;;;;12.02;3.58;;;3.90;99.90;;;4.82;62.65;101340.97;5028518;28;20291;-78
2021/04/09 02:09:59;;;;;;;9.90;3.50;;;3.90;99.90;;;4.79;62.64;101341.00;5009787;28;20230;-78
2021/04/09 02:12:27;;;;;;;9.97;3.20;;;3.90;99.90;;;4.75;62.79;101336.72;5023789;28;20585;-77
2021/04/09 02:14:56;;;;;;;12.63;3.27;;;3.90;99.90;;;4.79;62.79;101338.41;5032554;28;20225;-78
2021/04/09 02:17:23;;;;;;;9.80;2.93;;;3.90;99.90;;;4.79;62.73;101335.81;5012206;28;20557;-78
2021/04/09 02:19:51;;;;;;;10.07;3.55;;;3.90;99.90;;;4.80;62.62;101334.97;5002938;28;20261;-79
2021/04/09 02:22:18;;;;;;;11.53;3.43;;;3.90;99.90;;;4.77;62.69;101327.16;5008208;28;20224;-78
2021/04/09 02:24:47;;;;;;;9.27;3.07;;;3.90;99.90;;;4.75;62.42;101328.94;5029855;28;20186;-78
2021/04/09 02:27:15;;;;;;;10.30;3.40;;;3.90;99.90;;;4.76;62.70;101327.19;5011596;28;20830;-78
2021/04/09 02:29:43;;;;;;;10.68;3.25;;;3.90;99.90;;;4.77;62.39;101322.00;5015877;28;20301;-78
2021/04/09 02:32:11;;;;;;;14.38;3.17;;;3.90;99.90;;;4.74;62.53;101316.81;5018082;28;20241;-78
2021/04/09 02:34:38;;;;;;;10.63;3.35;;;3.90;99.90;;;4.73;62.54;101322.00;5008704;28;20213;-78
2021/04/09 02:37:05;;;;;;;8.67;2.70;;;3.90;99.90;;;4.71;62.29;101311.66;5028057;28;20702;-78
2021/04/09 02:39:38;;;;;;;12.07;3.20;;;3.90;99.90;;;4.70;62.43;101322.03;5005385;28;20289;-78
2021/04/09 02:42:08;;;;;;;8.68;2.67;;;3.90;99.90;;;4.68;62.51;101306.50;5029853;28;20324;-79
2021/04/09 02:44:35;;;;;;;9.02;3.22;;;3.80;99.90;;;4.71;62.74;101303.88;5004137;28;20249;-78
2021/04/09 02:47:07;;;;;;;9.25;2.65;;;3.80;99.90;;;4.74;62.84;101305.59;4999302;28;20201;-78
2021/04/09 02:49:39;;;;;;;13.70;4.00;;;3.80;99.90;;;4.78;62.74;101297.81;5001821;28;20221;-78
2021/04/09 02:52:15;;;;;;;12.63;3.20;;;3.80;99.90;;;4.79;62.39;101294.34;5021413;28;20205;-78
2021/04/09 02:54:48;;;;;;;9.83;3.20;;;3.80;99.90;;;4.79;62.60;101293.47;5022351;28;20198;-78
2021/04/09 02:57:16;;;;;;;9.43;3.13;;;3.80;99.90;;;4.75;62.59;101287.47;5016836;28;20215;-79
2021/04/09 02:59:43;;;;;;;11.57;3.50;;;3.80;99.90;;;4.72;62.62;101290.03;5002359;28;20233;-78
2021/04/09 03:02:12;;;;;;;8.52;3.03;;;3.80;99.90;;;4.66;62.87;101286.63;5001425;28;20210;-78
2021/04/09 03:04:41;;;;;;;11.33;3.13;;;3.80;99.90;;;4.58;62.81;101284.06;5016150;28;20690;-78
2021/04/09 03:07:14;;;;;;;9.20;2.90;;;3.70;99.90;;;4.58;63.00;101288.38;5009092;28;20218;-78
2021/04/09 03:09:40;;;;;;;9.60;2.97;;;3.70;99.90;;;4.58;63.20;101276.31;5007768;28;20233;-77
2021/04/09 03:12:13;;;;;;;11.13;3.33;;;3.70;99.90;;;4.60;63.23;101271.97;5015116;28;20198;-77
2021/04/09 03:14:42;;;;;;;9.97;3.30;;;3.70;99.90;;;4.54;62.88;101261.63;5009856;28;20295;-78
2021/04/09 03:17:18;;;;;;;9.93;3.00;;;3.70;99.90;;;4.52;63.05;101265.94;5000423;28;20687;-78
2021/04/09 03:19:45;;;;;;;11.10;3.40;;;3.70;99.90;;;4.52;63.41;101260.75;5006406;28;20304;-78
2021/04/09 03:22:13;;;;;;;9.07;2.93;;;3.70;99.90;;;4.56;63.26;101252.13;5020673;28;20202;-78
2021/04/09 03:24:39;;;;;;;9.50;3.23;;;3.70;99.90;;;4.56;63.09;101254.72;5024264;28;20202;-78
2021/04/09 03:27:08;;;;;;;12.07;3.53;;;3.70;99.90;;;4.52;63.24;101253.00;5009494;28;20717;-78
2021/04/09 03:29:34;;;;;;;9.17;3.10;;;3.60;99.90;;;4.46;62.96;101242.66;4999945;28;20241;-78
2021/04/09 03:32:01;;;;;;;14.27;3.53;;;3.50;99.90;;;4.43;63.37;101241.81;5006538;28;20228;-77
2021/04/09 03:34:27;;;;;;;11.10;3.57;;;3.50;99.90;;;4.41;63.47;101239.25;5022104;28;22331;-77
2021/04/09 03:36:53;;;;;;;9.30;2.93;;;3.50;99.90;;;4.46;63.47;101237.50;5026004;28;20237;-78
2021/04/09 03:39:21;;;;;;;10.83;2.93;;;3.50;99.90;;;4.51;63.37;101234.88;5044791;28;20224;-77
2021/04/09 03:41:47;;;;;;;11.53;3.60;;;3.60;99.90;;;4.45;63.27;101243.56;5030769;28;20194;-77
2021/04/09 03:44:13;;;;;;;10.90;3.30;;;3.60;99.90;;;4.44;63.48;101248.72;5024257;28;20224;-77
2021/04/09 03:46:41;;;;;;;14.03;3.70;;;3.60;99.90;;;4.42;63.45;101238.34;5027485;28;20216;-79
2021/04/09 03:49:08;;;;;;;8.57;3.10;;;3.60;99.90;;;4.35;63.29;101241.88;5026946;28;20194;-78
2021/04/09 03:51:35;;;;;;;11.80;3.00;;;3.50;99.90;;;4.27;63.49;101222.88;5029996;28;20250;-78
2021/04/09 03:54:02;;;;;;;9.37;3.30;;;3.50;99.90;;;4.26;63.89;101234.13;5038430;28;20202;-79
2021/04/09 03:56:29;;;;;;;11.60;3.50;;;3.40;99.90;;;4.28;63.86;101214.25;5024410;28;20232;-77
2021/04/09 03:58:56;;;;;;;9.33;2.97;;;3.40;99.90;;;4.32;63.93;101217.72;5041569;28;20241;-78
2021/04/09 04:01:26;;;;;;;12.77;3.55;;;3.40;99.90;;;4.29;63.61;101222.88;5043803;28;20197;-78
2021/04/09 04:03:52;;;;;;;9.53;3.27;;;3.40;99.90;;;4.27;63.49;101222.88;5020538;28;20293;-77
2021/04/09 04:06:19;;;;;;;8.70;3.07;;;3.40;99.90;;;4.23;63.78;101215.13;5021587;28;20250;-78
2021/04/09 04:08:45;;;;;;;10.17;3.77;;;3.30;99.90;;;4.22;63.71;101208.25;5024058;28;20194;-78
2021/04/09 04:11:14;;;;;;;14.33;3.60;;;3.30;99.90;;;4.17;63.83;101210.84;5011274;28;20674;-78
2021/04/09 04:13:41;;;;;;;10.37;3.17;;;3.30;99.90;;;4.13;64.17;101206.56;5001754;28;20191;-78
2021/04/09 04:16:08;;;;;;;10.83;3.23;;;3.30;99.90;;;4.16;64.16;101200.50;4995261;28;20287;-78
2021/04/09 04:18:34;;;;;;;13.23;3.67;;;3.30;99.90;;;4.17;64.00;101207.41;5011755;28;20578;-77
2021/04/09 04:21:01;;;;;;;11.93;3.10;;;3.30;99.90;;;4.16;64.05;101206.53;5001484;28;20198;-77
2021/04/09 04:23:28;;;;;;;11.20;3.37;;;3.30;99.90;;;4.17;64.02;101203.06;5001049;28;20202;-78
2021/04/09 04:25:54;;;;;;;10.17;3.60;;;3.30;99.90;;;4.17;64.13;101197.06;4998847;28;20297;-78
2021/04/09 04:28:22;;;;;;;9.93;3.23;;;3.30;99.90;;;4.13;64.30;101206.56;5005511;28;20732;-78
2021/04/09 04:30:50;;;;;;;9.53;3.67;;;3.30;99.90;;;4.10;64.18;101209.16;5004471;28;20240;-78
2021/04/09 04:33:18;;;;;;;10.23;3.70;;;3.20;99.90;;;4.14;64.30;101213.44;5010262;28;20682;-78
2021/04/09 04:35:48;;;;;;;13.47;3.77;;;3.30;99.90;;;4.20;64.44;101202.22;5000517;28;20215;-78
2021/04/09 04:38:15;;;;;;;11.23;3.70;;;3.30;99.90;;;4.22;64.44;101201.31;5013748;28;20268;-77
2021/04/09 04:40:42;;;;;;;10.77;3.33;;;3.30;99.90;;;4.24;64.12;101199.59;5008147;28;20250;-78
2021/04/09 04:43:10;;;;;;;11.50;3.67;;;3.30;99.90;;;4.24;64.04;101206.50;5003810;28;20761;-78
2021/04/09 04:45:36;;;;;;;10.43;3.37;;;3.30;99.90;;;4.23;64.25;101200.47;5016314;28;20198;-79
2021/04/09 04:48:07;;;;;;;10.07;3.47;;;3.30;99.90;;;4.24;64.05;101199.59;5019463;28;20502;-77
2021/04/09 04:50:33;;;;;;;13.10;3.77;;;3.40;99.90;;;4.25;64.25;101196.16;5012049;28;20647;-78
2021/04/09 04:53:01;;;;;;;12.90;3.43;;;3.40;99.90;;;4.27;64.31;101193.56;5021975;28;20205;-79
2021/04/09 04:55:28;;;;;;;10.17;3.67;;;3.40;99.90;;;4.28;64.03;101195.25;4995922;28;20218;-78
2021/04/09 04:57:54;;;;;;;11.93;3.53;;;3.40;99.90;;;4.28;64.29;101197.84;5026473;28;20206;-78
2021/04/09 05:00:21;;;;;;;14.80;4.03;;;3.40;99.90;;;4.27;64.27;101190.97;5001021;28;20223;-80
2021/04/09 05:02:48;;;;;;;14.90;4.07;;;3.40;99.90;;;4.25;64.27;101187.50;5008607;28;20214;-78
2021/04/09 05:05:15;;;;;;;10.93;3.90;;;3.40;99.90;;;4.23;64.13;101181.47;5016229;28;20194;-77
2021/04/09 05:07:42;;;;;;;9.77;3.80;;;3.40;99.90;;;4.23;64.02;101177.16;5017469;28;20285;-76
2021/04/09 05:10:10;;;;;;;11.43;3.83;;;3.40;99.90;;;4.21;64.11;101178.03;5024750;28;20229;-78
2021/04/09 05:12:38;;;;;;;11.47;4.00;;;3.40;99.90;;;4.21;64.44;101171.13;5017755;28;20198;-78
2021/04/09 05:15:06;;;;;;;13.20;4.13;;;3.40;99.90;;;4.23;64.22;101169.41;5010629;28;20286;-77
2021/04/09 05:17:32;;;;;;;10.80;3.93;;;3.40;99.90;;;4.21;64.08;101173.72;5014610;28;20201;-78
2021/04/09 05:19:59;;;;;;;11.60;3.93;;;3.40;99.90;;;4.17;64.43;101179.75;5022325;28;20222;-78
2021/04/09 05:22:26;;;;;;;13.47;3.83;;;3.40;99.90;;;4.19;64.26;101172.84;5025098;28;20259;-79
2021/04/09 05:24:52;;;;;;;9.73;3.63;;;3.40;99.90;;;4.27;64.42;101168.50;5018657;28;20188;-79
2021/04/09 05:27:18;;;;;;;9.63;3.77;;;3.40;99.90;;;4.32;64.31;101166.75;5014104;28;20202;-78
2021/04/09 05:29:45;;;;;;;11.98;4.20;;;3.50;99.90;;;4.34;64.17;101162.44;5016296;28;20226;-78
2021/04/09 05:32:12;;;;;;;11.63;3.97;;;3.50;99.90;;;4.43;64.03;101167.56;5026154;28;20202;-81
2021/04/09 05:34:40;;;;;;;12.07;4.47;;;3.50;99.90;;;4.49;63.82;101154.56;5037164;28;20190;-78
2021/04/09 05:37:08;;;;;;;12.93;4.47;;;3.60;99.90;;;4.51;63.67;101160.59;5032664;28;20230;-78
2021/04/09 05:39:36;;;;;;;12.87;4.10;;;3.60;99.90;;;4.50;63.76;101151.13;5020186;28;20245;-78
2021/04/09 05:42:03;;;;;;;13.38;4.30;;;3.70;99.90;;;4.56;63.48;101156.25;5018105;28;20278;-78
2021/04/09 05:44:30;;;;;;;17.57;4.80;;;3.70;99.90;;;4.62;63.66;101155.38;5002881;28;20230;-78
2021/04/09 05:46:57;;;;;;;13.43;4.23;;;3.80;99.90;;;4.63;63.50;101147.59;5007885;28;20194;-76
2021/04/09 05:49:23;;;;;;;11.77;4.33;;;3.80;99.90;;;4.67;63.09;101140.66;5014853;28;20229;-76
2021/04/09 05:51:50;;;;;;;13.50;4.00;;;3.90;99.90;;;4.68;62.95;101144.94;5015188;28;20225;-76
2021/04/09 05:54:16;;;;;;;16.02;4.60;;;3.90;99.90;;;4.70;63.03;101143.22;5006651;28;20260;-76
2021/04/09 05:56:43;;;;;;;13.40;4.30;;;3.90;99.90;;;4.74;62.67;101140.59;5016281;28;20249;-77
2021/04/09 05:59:10;;;;;;;12.60;4.73;;;4.00;99.90;;;4.77;62.51;101139.72;5033281;28;20213;-77
2021/04/09 06:01:39;;;;;;;11.00;4.23;;;4.00;99.90;;;4.82;62.74;101140.53;4999449;28;20210;-76
2021/04/09 06:04:07;;;;;;;11.88;4.50;;;4.10;99.90;;;4.94;62.58;101141.28;5021271;28;20671;-77
2021/04/09 06:06:33;;;;;;;13.10;4.60;;;4.20;99.90;;;5.05;62.40;101130.84;5029416;28;20555;-78
2021/04/09 06:09:01;;;;;;;13.55;4.45;;;4.30;99.90;;;5.08;62.17;101144.66;5022529;28;20241;-76
2021/04/09 06:11:29;;;;;;;14.90;5.03;;;4.40;99.90;;;5.10;61.93;101140.31;5015568;28;20214;-76
2021/04/09 06:13:57;;;;;;;11.40;4.35;;;4.40;99.90;;;5.16;62.13;101134.19;5034047;28;20236;-79
2021/04/09 06:16:23;;;;;;;11.38;4.38;;;4.40;99.90;;;5.18;61.58;101142.81;5006653;28;20810;-75
2021/04/09 06:18:50;;;;;;;12.25;4.60;;;4.50;99.90;;;5.21;61.67;101136.75;5003506;28;20278;-77
2021/04/09 06:21:16;;;;;;;14.50;5.20;;;4.50;99.90;;;5.31;61.54;101141.00;4997215;28;20195;-76
2021/04/09 06:23:43;;;;;;;10.48;4.50;;;4.60;99.90;;;5.41;61.47;101134.84;5001986;28;20273;-77
2021/04/09 06:26:09;;;;;;;14.77;4.97;;;4.70;99.90;;;5.52;61.34;101135.59;5005571;28;20725;-74
2021/04/09 06:28:35;;;;;;;14.63;4.90;;;4.80;99.90;;;5.61;60.81;101127.72;5001935;28;20194;-76
2021/04/09 06:31:03;;;;;;;12.05;4.72;;;4.90;99.90;;;5.69;60.52;101133.66;5004319;28;20279;-77
2021/04/09 06:33:30;;;;;;;12.60;4.80;;;5.00;99.90;;;5.72;60.40;101131.03;5026438;28;20234;-77
2021/04/09 06:35:56;;;;;;;13.98;4.70;;;5.00;99.90;;;5.71;60.45;101134.53;5009459;28;20214;-76
2021/04/09 06:38:23;;;;;;;12.70;4.82;;;5.00;99.90;;;5.76;60.67;101137.94;5012400;28;20240;-73
2021/04/09 06:40:49;;;;;;;12.73;4.82;;;5.00;99.90;;;5.81;60.39;101136.13;5021522;28;20221;-76
2021/04/09 06:43:15;;;;;;;14.85;4.78;;;5.10;99.90;;;5.85;59.90;101138.69;5014012;28;20195;-76
2021/04/09 06:45:42;;;;;;;13.27;4.93;;;5.10;99.90;;;5.91;60.16;101130.81;5014718;28;20289;-78
2021/04/09 06:48:10;;;;;;;12.85;4.47;;;5.20;99.90;;;6.01;59.64;101129.00;5020805;28;20202;-77
2021/04/09 06:50:40;;;;;;;15.20;5.18;;;5.30;99.90;;;6.13;59.28;101123.63;5005299;28;20349;-78
2021/04/09 06:53:07;;;;;;;16.00;4.88;;;5.50;99.90;;;6.23;59.11;101120.03;5039224;28;20228;-79
2021/04/09 06:55:34;;;;;;;16.00;5.30;;;5.70;99.90;;;6.36;58.83;101126.81;5009311;28;20668;-79
2021/04/09 06:58:01;;;;;;;11.52;4.47;;;5.90;99.90;;;6.44;59.00;101119.75;5009194;28;20257;-79
2021/04/09 07:00:32;;;;;;;13.60;5.22;;;6.00;99.90;;;6.50;58.79;101119.66;5018777;28;20278;-78
2021/04/09 07:02:59;;;;;;;12.95;4.80;;;6.10;99.90;;;6.58;58.47;101122.16;5016493;28;20204;-79
2021/04/09 07:05:26;;;;;;;13.80;4.75;;;6.20;99.90;;;6.64;58.48;101112.53;5035919;28;20649;-79
2021/04/09 07:07:54;;;;;;;15.05;5.03;;;6.20;99.90;;;6.74;58.10;101118.44;5029660;28;20216;-79
2021/04/09 07:10:23;;;;;;;14.02;5.00;;;6.30;99.90;;;6.81;58.05;101114.84;5012761;28;20213;-79
2021/04/09 07:13:03;;;;;;;13.25;4.78;;;6.40;99.90;;;6.91;57.57;101109.50;5012639;28;20194;-76
2021/04/09 07:15:38;;;;;;;11.90;4.65;;;6.50;99.90;;;6.95;57.73;101111.13;4997542;28;22017;-75
2021/04/09 07:18:06;;;;;;;12.73;4.93;;;6.60;99.90;;;6.99;57.56;101105.00;5014720;28;20202;-75
2021/04/09 07:20:37;;;;;;;14.30;5.05;;;6.70;99.90;;;7.02;57.22;101099.75;5028850;28;20213;-76
2021/04/09 07:23:08;;;;;;;14.18;4.93;;;6.70;99.90;;;7.03;57.25;101090.22;5024891;28;20193;-77
2021/04/09 07:25:39;;;;;;;13.48;5.10;;;6.70;99.90;;;7.07;57.34;101095.31;5027230;28;20210;-77
2021/04/09 07:28:15;;;;;;;14.60;5.43;;;6.80;99.90;;;7.14;57.04;101083.94;5008202;28;20191;-79
2021/04/09 07:30:49;;;;;;;12.93;4.68;;;6.80;99.90;;;7.22;57.12;101082.03;5013992;28;20214;-76
2021/04/09 07:33:17;;;;;;;11.93;4.93;;;6.90;99.90;;;7.34;56.63;101094.84;4996939;28;20189;-77
2021/04/09 07:35:50;;;;;;;11.95;4.47;;;7.00;99.90;;;7.43;56.25;101080.81;5021466;28;20218;-77
2021/04/09 07:38:25;;;;;;;11.55;4.70;;;7.10;99.90;;;7.49;56.18;101086.75;5031407;28;20663;-77
2021/04/09 07:40:58;;;;;;;14.50;5.03;;;7.20;99.90;;;7.54;55.95;101082.31;5012426;28;20209;-77
2021/04/09 07:43:27;;;;;;;14.70;5.07;;;7.30;99.90;;;7.59;55.48;101087.41;5012869;28;20210;-77
2021/04/09 07:45:56;;;;;;;14.50;5.18;;;7.30;99.90;;;7.65;55.66;101090.75;5016556;28;20198;-78
2021/04/09 07:48:35;;;;;;;14.98;4.75;;;7.30;99.90;;;7.72;55.36;101098.47;5010477;28;20197;-78
2021/04/09 07:51:05;;;;;;;10.68;4.60;;;7.40;99.90;;;7.81;55.33;101077.44;4993896;28;497844;-77
2021/04/09 07:53:41;;;;;;;13.35;5.15;;;7.40;99.90;;;7.92;55.05;101083.28;5010517;28;20289;-74
2021/04/09 07:56:14;;;;;;;13.18;4.95;;;7.60;99.90;;;8.01;54.72;101077.88;5016851;28;20547;-77
2021/04/09 07:58:42;;;;;;;15.95;4.85;;;7.70;99.90;;;8.12;54.52;101074.13;5010577;28;20201;-77
2021/04/09 08:01:20;;;;;;;12.93;4.57;;;7.90;99.90;;;8.23;54.14;101071.31;5021644;28;20198;-74
2021/04/09 08:03:48;;;;;;;14.13;4.55;;;8.00;99.90;;;8.28;53.96;101064.28;5017653;28;20190;-74
2021/04/09 08:06:18;;;;;;;14.02;5.13;;;8.00;99.90;;;8.35;54.08;101063.25;5019941;28;20257;-77
2021/04/09 08:08:58;;;;;;;12.32;4.80;;;8.10;99.90;;;8.46;54.11;101054.28;5026204;28;20255;-79
2021/04/09 08:11:28;;;;;;;13.52;5.30;;;8.20;99.90;;;8.59;53.75;101063.53;5012195;28;20201;-78
2021/04/09 08:14:08;;;;;;;11.40;4.72;;;8.30;99.90;;;8.65;53.56;101060.78;5006942;28;20557;-80
2021/04/09 08:16:37;;;;;;;13.90;5.07;;;8.40;99.90;;;8.69;53.32;101064.19;5018217;28;20616;-78
2021/04/09 08:19:09;;;;;;;15.18;5.55;;;8.40;99.90;;;8.78;53.53;101054.38;5025689;28;20305;-77
2021/04/09 08:21:39;;;;;;;14.23;4.78;;;8.50;99.90;;;8.91;52.93;101054.06;5011071;28;20209;-73
2021/04/09 08:24:09;;;;;;;11.02;4.20;;;8.60;99.90;;;9.00;52.74;101051.19;5035993;28;20227;-75
2021/04/09 08:26:37;;;;;;;11.23;4.38;;;8.80;99.90;;;9.12;52.69;101045.66;5036922;28;20281;-76
2021/04/09 08:29:07;;;;;;;11.60;4.28;;;8.90;99.90;;;9.22;52.45;101048.00;5029213;28;20606;-77
2021/04/09 08:31:37;;;;;;;10.70;4.43;;;9.00;99.90;;;9.35;52.50;101040.69;5005509;28;20261;-73
2021/04/09 08:34:04;;;;;;;15.25;5.03;;;9.20;99.90;;;9.43;51.83;101036.97;5024977;28;20198;-74
2021/04/09 08:36:32;;;;;;;13.57;5.15;;;9.30;99.90;;;9.49;51.54;101031.59;5026975;28;20218;-73
2021/04/09 08:39:03;;;;;;;13.35;5.28;;;9.40;99.90;;;9.61;51.45;101039.06;5029956;28;20225;-75
2021/04/09 08:41:30;;;;;;;12.15;5.20;;;9.60;99.90;;;9.76;51.39;101035.16;5012445;28;20683;-74
2021/04/09 08:43:59;;;;;;;16.85;4.93;;;9.70;99.90;;;9.87;51.22;101033.94;5017373;28;20194;-76
2021/04/09 08:46:26;;;;;;;16.95;5.10;;;9.80;99.90;;;9.97;51.00;101026.69;5034312;28;20201;-77
2021/04/09 08:48:55;;;;;;;11.40;4.60;;;9.90;99.90;;;10.01;51.04;101021.31;5026406;28;20200;-75
2021/04/09 08:51:24;;;;;;;12.60;4.60;;;10.00;99.90;;;10.07;51.03;101015.03;5009868;28;20563;-77
2021/04/09 08:53:51;;;;;;;14.40;5.03;;;10.10;99.90;;;10.18;51.07;101019.97;5018818;28;20753;-75
2021/04/09 08:56:34;;;;;;;13.27;4.72;;;10.20;99.90;;;10.28;50.53;101019.66;5034196;28;20206;-77
2021/04/09 08:59:01;;;;;;;12.55;4.43;;;10.30;99.90;;;10.36;50.72;101016.78;5040796;28;20221;-78
2021/04/09 09:01:28;;;;;;;12.52;4.60;;;10.40;99.90;;;10.45;50.54;101013.88;5033752;28;20183;-76
2021/04/09 09:03:54;;;;;;;13.40;4.50;;;10.50;99.60;;;10.52;50.08;101015.38;5030301;28;20206;-78
2021/04/09 09:06:42;;;;;;;10.07;4.43;;;10.60;99.00;;;10.55;50.04;101010.06;5049991;28;20246;-78
2021/04/09 09:09:08;;;;;;;10.93;4.00;;;10.60;98.80;;;10.58;49.79;101012.56;5056956;28;20274;-77
2021/04/09 09:11:54;;;;;;;12.63;4.10;;;10.70;98.50;;;10.63;49.77;101016.75;5044290;28;20190;-76
2021/04/09 09:14:44;;;;;;;12.30;4.82;;;10.80;98.30;;;10.75;49.63;101016.31;5037398;28;20244;-76
2021/04/09 09:17:39;;;;;;;13.95;4.60;;;11.00;97.60;;;10.88;49.41;101019.41;5042765;28;20199;-76
2021/04/09 09:20:23;;;;;;;12.85;4.50;;;11.00;97.50;;;10.92;48.96;101007.91;5015132;28;20222;-72
2021/04/09 09:22:55;;;;;;;11.95;4.20;;;11.10;96.90;;;10.92;48.66;101002.66;5036237;28;20222;-76
2021/04/09 09:25:34;;;;;;;13.70;4.63;;;11.00;96.40;;;10.86;48.56;101009.00;5035424;28;20194;-75
2021/04/09 09:28:02;;;;;;;18.10;6.50;;;10.90;96.20;;;10.88;48.50;101006.31;5033879;28;20197;-76
2021/04/09 09:30:34;;;;;;;19.88;7.00;;;11.00;96.30;;;10.93;48.59;101005.25;5041009;28;20228;-73
2021/04/09 09:33:26;;;;;;;14.75;5.38;;;11.00;95.80;;;10.99;48.07;101006.78;5012243;28;20210;-74
2021/04/09 09:35:58;;;;;;;12.60;4.20;;;11.10;95.70;;;11.04;48.27;100984.78;5019056;28;20194;-74
2021/04/09 09:38:55;;;;;;;14.93;5.18;;;11.20;95.90;;;11.20;47.95;100998.19;5020236;28;20206;-74
2021/04/09 09:41:44;;;;;;;14.02;4.90;;;11.30;95.50;;;11.33;47.74;100981.13;5006459;28;20211;-75
2021/04/09 09:44:43;;;;;;;10.93;4.65;;;11.50;95.40;;;11.54;47.79;100985.56;5028127;28;20205;-74
2021/04/09 09:47:25;;;;;;;12.73;5.18;;;11.80;94.80;;;11.71;47.25;100972.72;5024275;28;20210;-74
2021/04/09 09:50:23;;;;;;;18.20;5.57;;;11.90;94.60;;;11.83;47.22;100974.88;5026290;28;20293;-74
2021/04/09 09:52:59;;;;;;;12.15;5.05;;;12.10;94.20;;;11.81;47.04;100978.44;5012428;28;20195;-78
2021/04/09 09:55:31;;;;;;;12.80;4.88;;;12.00;93.60;;;11.78;47.05;100970.72;5040006;28;20198;-74
2021/04/09 09:58:04;;;;;;;13.80;5.32;;;12.00;93.50;;;11.69;46.88;100969.28;5016527;28;20270;-74
2021/04/09 10:00:35;;;;;;;11.85;5.20;;;11.90;93.40;;;11.67;47.29;100967.66;5045261;28;20229;-76
2021/04/09 10:03:20;;;;;;;13.70;4.97;;;11.90;93.90;;;11.71;47.19;100954.38;5038551;28;20269;-73
2021/04/09 10:05:50;;;;;;;13.57;5.28;;;11.90;93.60;;;11.76;47.44;100957.66;5036000;28;20194;-77
2021/04/09 10:08:21;;;;;;;11.27;5.30;;;12.00;93.70;;;11.75;47.21;100958.59;5010325;28;20194;-75
2021/04/09 10:10:51;;;;;;;12.63;4.90;;;11.90;93.40;;;11.74;47.22;100966.53;5016979;28;20714;-75
2021/04/09 10:13:27;;;;;;;11.13;5.10;;;11.90;93.40;;;11.77;47.29;100959.34;5013461;28;20277;-75
2021/04/09 10:16:06;;;;;;;15.45;5.20;;;11.90;93.50;;;11.82;47.39;100957.41;5021274;28;20201;-73
2021/04/09 10:18:33;;;;;;;14.10;4.97;;;11.90;93.40;;;11.88;47.20;100951.94;5014547;28;20196;-76
2021/04/09 10:21:10;;;;;;;13.77;5.10;;;12.00;93.30;;;11.95;46.97;100956.06;5027544;28;20232;-73
2021/04/09 10:23:36;;;;;;;11.85;4.78;;;12.00;93.20;;;12.03;47.06;100946.09;5020275;28;20209;-73
2021/04/09 10:26:03;;;;;;;12.27;5.05;;;12.10;93.10;;;12.12;46.77;100939.63;5043066;28;20203;-72
2021/04/09 10:28:33;;;;;;;11.43;5.00;;;12.20;92.80;;;12.09;46.84;100940.59;5030781;28;20197;-73
2021/04/09 10:31:15;;;;;;;13.50;5.68;;;12.20;92.80;;;12.13;46.76;100936.94;5021242;28;20281;-70